createdAt,value
2022-12-01T00:01:38.037Z,6.53
2022-12-01T00:05:10.152Z,6.18
2022-12-01T00:08:40.860Z,9.98
2022-12-01T00:12:01.914Z,7.25
2022-12-01T00:15:16.844Z,5.90
2022-12-01T00:18:36.218Z,8.45
2022-12-01T00:22:11.451Z,5.80
2022-12-01T00:25:41.805Z,5.37
2022-12-01T00:29:08.959Z,8.55
2022-12-01T00:32:26.716Z,5.75
2022-12-01T00:35:31.027Z,6.60
2022-12-01T00:38:52.351Z,5.80
2022-12-01T00:42:13.371Z,5.40
2022-12-01T00:45:45.423Z,4.70
2022-12-01T00:49:16.501Z,4.80
2022-12-01T00:52:33.668Z,5.97
2022-12-01T00:55:59.586Z,4.07
2022-12-01T00:59:19.206Z,5.65
2022-12-01T01:02:23.146Z,5.00
2022-12-01T01:05:28.350Z,5.05
2022-12-01T01:08:51.242Z,5.68
2022-12-01T01:12:25.673Z,5.35
2022-12-01T01:15:43.046Z,6.82
2022-12-01T01:19:14.074Z,3.75
2022-12-01T01:22:32.911Z,7.37
2022-12-01T01:25:52.213Z,4.45
2022-12-01T01:29:34.750Z,6.70
2022-12-01T01:32:54.012Z,5.18
2022-12-01T01:36:12.165Z,3.67
2022-12-01T01:39:33.600Z,3.80
2022-12-01T01:43:38.490Z,9.93
2022-12-01T01:47:29.402Z,15.85
2022-12-01T01:51:02.087Z,4.25
2022-12-01T01:54:41.410Z,8.90
2022-12-01T01:58:00.736Z,7.18
2022-12-01T02:01:34.676Z,5.53
2022-12-01T02:08:26.012Z,5.10
2022-12-01T02:11:57.469Z,8.68
2022-12-01T02:15:34.448Z,8.65
2022-12-01T02:19:22.829Z,6.32
2022-12-01T02:22:53.359Z,8.63
2022-12-01T02:26:42.011Z,8.18
2022-12-01T02:30:21.788Z,4.57
2022-12-01T02:34:45.952Z,4.43
2022-12-01T02:38:39.054Z,6.53
2022-12-01T02:42:54.392Z,3.55
2022-12-01T02:46:38.926Z,7.22
2022-12-01T02:50:03.696Z,5.25
2022-12-01T02:53:44.526Z,3.60
2022-12-01T02:56:47.462Z,9.88
2022-12-01T03:00:21.892Z,7.07
2022-12-01T03:04:17.414Z,8.88
2022-12-01T03:08:34.483Z,5.93
2022-12-01T03:12:14.489Z,3.30
2022-12-01T03:15:53.397Z,4.43
2022-12-01T03:19:38.506Z,12.75
2022-12-01T03:23:22.583Z,6.35
2022-12-01T03:26:47.498Z,5.37
2022-12-01T03:30:21.934Z,5.22
2022-12-01T03:34:04.103Z,4.78
2022-12-01T03:45:16.244Z,5.18
2022-12-01T03:49:11.209Z,3.87
2022-12-01T03:52:36.383Z,3.65
2022-12-01T03:56:17.521Z,5.62
2022-12-01T03:59:49.397Z,6.03
2022-12-01T04:03:18.895Z,5.47
2022-12-01T04:06:59.161Z,3.95
2022-12-01T04:10:18.427Z,5.60
2022-12-01T04:13:53.348Z,4.32
2022-12-01T04:17:30.310Z,6.15
2022-12-01T04:20:58.417Z,7.25
2022-12-01T04:24:20.130Z,8.85
2022-12-01T04:27:39.026Z,5.32
2022-12-01T04:31:06.912Z,5.47
2022-12-01T04:34:25.347Z,6.93
2022-12-01T04:37:42.818Z,4.55
2022-12-01T04:41:06.862Z,5.35
2022-12-01T04:44:36.070Z,5.00
2022-12-01T04:48:05.446Z,4.53
2022-12-01T04:51:25.907Z,6.32
2022-12-01T04:55:01.280Z,5.40
2022-12-01T04:58:19.111Z,8.30
2022-12-01T05:01:48.453Z,6.03
2022-12-01T05:05:23.427Z,5.82
2022-12-01T05:08:46.678Z,5.65
2022-12-01T05:12:03.793Z,4.15
2022-12-01T05:15:32.079Z,3.65
2022-12-01T05:19:16.636Z,6.93
2022-12-01T05:23:03.813Z,6.22
2022-12-01T05:26:09.031Z,6.25
2022-12-01T05:29:57.919Z,3.30
2022-12-01T05:33:24.181Z,6.72
2022-12-01T05:36:53.119Z,5.40
2022-12-01T05:40:09.811Z,5.22
2022-12-01T05:43:39.852Z,4.57
2022-12-01T05:47:16.431Z,7.85
2022-12-01T05:50:34.125Z,5.10
2022-12-01T05:53:52.909Z,6.60
2022-12-01T05:57:20.808Z,6.85
2022-12-01T06:00:45.582Z,2.72
2022-12-01T06:04:00.055Z,7.45
2022-12-01T06:07:26.127Z,6.37
2022-12-01T06:10:46.112Z,5.15
2022-12-01T06:14:14.096Z,3.17
2022-12-01T06:17:39.784Z,6.72
2022-12-01T06:21:07.440Z,8.43
2022-12-01T06:24:35.735Z,2.58
2022-12-01T06:28:07.285Z,6.82
2022-12-01T06:31:25.208Z,4.55
2022-12-01T06:34:54.311Z,5.25
2022-12-01T06:38:12.421Z,7.78
2022-12-01T06:41:46.843Z,4.12
2022-12-01T06:46:00.889Z,3.45
2022-12-01T06:49:29.177Z,2.12
2022-12-01T06:53:06.586Z,5.15
2022-12-01T06:56:45.047Z,6.75
2022-12-01T07:00:32.289Z,8.07
2022-12-01T07:04:00.881Z,8.45
2022-12-01T07:07:40.949Z,4.25
2022-12-01T07:11:16.119Z,9.60
2022-12-01T07:14:59.091Z,12.32
2022-12-01T07:18:41.724Z,7.25
2022-12-01T07:22:18.545Z,6.35
2022-12-01T07:26:02.086Z,9.20
2022-12-01T07:33:33.361Z,8.05
2022-12-01T07:37:21.270Z,9.73
2022-12-01T07:40:31.118Z,8.60
2022-12-01T07:44:07.392Z,6.40
2022-12-01T07:47:44.199Z,8.88
2022-12-01T07:51:11.925Z,10.30
2022-12-01T07:54:33.207Z,7.18
2022-12-01T07:58:20.114Z,6.03
2022-12-01T08:01:46.419Z,7.97
2022-12-01T08:05:18.727Z,8.43
2022-12-01T08:08:53.327Z,8.40
2022-12-01T08:12:28.762Z,11.10
2022-12-01T08:16:10.815Z,12.70
2022-12-01T08:19:44.799Z,11.52
2022-12-01T08:23:18.252Z,11.40
2022-12-01T08:26:28.159Z,11.48
2022-12-01T08:29:34.272Z,12.18
2022-12-01T08:33:14.821Z,9.80
2022-12-01T08:36:39.476Z,11.43
2022-12-01T08:40:15.332Z,10.65
2022-12-01T08:44:17.517Z,10.47
2022-12-01T08:47:41.725Z,7.93
2022-12-01T08:51:20.676Z,10.93
2022-12-01T08:54:23.529Z,12.18
2022-12-01T08:57:42.088Z,9.07
2022-12-01T09:01:10.882Z,8.70
2022-12-01T09:04:52.703Z,9.25
2022-12-01T09:08:33.887Z,11.38
2022-12-01T09:12:10.736Z,6.15
2022-12-01T09:15:58.651Z,9.55
2022-12-01T09:19:34.409Z,9.98
2022-12-01T09:22:52.578Z,8.30
2022-12-01T09:26:50.240Z,9.23
2022-12-01T09:30:09.917Z,10.85
2022-12-01T09:33:42.322Z,9.50
2022-12-01T09:37:02.454Z,9.27
2022-12-01T09:45:02.327Z,8.43
2022-12-01T09:48:46.779Z,10.38
2022-12-01T09:52:22.952Z,9.77
2022-12-01T09:56:03.098Z,10.40
2022-12-01T09:59:22.967Z,15.32
2022-12-01T10:03:17.529Z,11.25
2022-12-01T10:07:18.898Z,9.68
2022-12-01T10:10:44.910Z,9.77
2022-12-01T10:14:22.950Z,22.37
2022-12-01T10:17:54.120Z,11.35
2022-12-01T10:22:03.340Z,9.93
2022-12-01T10:25:55.550Z,11.40
2022-12-01T10:29:49.581Z,8.30
2022-12-01T10:33:22.990Z,8.55
2022-12-01T10:37:01.035Z,13.53
2022-12-01T10:44:01.589Z,6.35
2022-12-01T10:47:45.450Z,7.47
2022-12-01T10:51:57.356Z,8.57
2022-12-01T10:55:32.150Z,8.95
2022-12-01T10:59:05.444Z,10.40
2022-12-01T11:02:44.958Z,11.27
2022-12-01T11:06:08.153Z,6.65
2022-12-01T11:09:31.180Z,9.85
2022-12-01T11:13:19.615Z,7.50
2022-12-01T11:16:55.897Z,7.60
2022-12-01T11:20:38.567Z,8.80
2022-12-01T11:24:44.815Z,12.63
2022-12-01T11:28:21.489Z,9.77
2022-12-01T11:31:54.111Z,7.97
2022-12-01T11:35:37.982Z,8.55
2022-12-01T11:38:43.683Z,8.02
2022-12-01T11:41:50.117Z,6.97
2022-12-01T11:45:39.461Z,5.57
2022-12-01T11:49:23.473Z,5.15
2022-12-01T11:52:45.151Z,8.48
2022-12-01T11:55:52.687Z,5.72
2022-12-01T11:59:49.803Z,2.37
2022-12-01T12:03:23.972Z,6.28
2022-12-01T12:07:01.322Z,4.90
2022-12-01T12:10:49.758Z,5.25
2022-12-01T12:14:51.711Z,4.80
2022-12-01T12:18:40.829Z,5.25
2022-12-01T12:23:01.928Z,5.22
2022-12-01T12:31:17.642Z,4.60
2022-12-01T12:35:32.141Z,4.18
2022-12-01T12:39:31.006Z,6.70
2022-12-01T12:43:25.755Z,6.12
2022-12-01T12:48:10.688Z,5.00
2022-12-01T12:50:58.034Z,2.83
2022-12-01T12:54:47.042Z,4.43
2022-12-01T12:58:31.959Z,3.58
2022-12-01T13:03:42.829Z,5.97
2022-12-01T13:06:24.213Z,4.78
2022-12-01T13:10:45.976Z,5.35
2022-12-01T13:15:03.796Z,5.53
2022-12-01T13:20:04.269Z,3.50
2022-12-01T13:23:50.979Z,8.30
2022-12-01T13:27:34.637Z,5.28
2022-12-01T13:31:31.889Z,4.43
2022-12-01T13:39:48.661Z,6.43
2022-12-01T13:43:27.977Z,5.35
2022-12-01T13:47:32.794Z,5.75
2022-12-01T13:51:04.029Z,6.00
2022-12-01T13:54:30.657Z,5.68
2022-12-01T13:58:29.359Z,7.28
2022-12-01T14:05:54.086Z,6.10
2022-12-01T14:09:28.847Z,6.65
2022-12-01T14:13:18.551Z,6.47
2022-12-01T14:16:55.492Z,8.68
2022-12-01T14:20:46.206Z,9.55
2022-12-01T14:24:08.531Z,7.32
2022-12-01T14:27:45.509Z,9.18
2022-12-01T14:31:49.165Z,8.57
2022-12-01T14:35:20.920Z,4.45
2022-12-01T14:39:49.634Z,8.70
2022-12-01T14:43:36.179Z,6.18
2022-12-01T14:47:51.117Z,7.82
2022-12-01T14:51:32.406Z,11.10
2022-12-01T14:54:51.513Z,8.60
2022-12-01T14:58:59.799Z,9.13
2022-12-01T15:02:25.599Z,7.55
2022-12-01T15:06:12.753Z,6.85
2022-12-01T15:13:48.803Z,8.10
2022-12-01T15:17:36.459Z,9.05
2022-12-01T15:21:31.555Z,5.45
2022-12-01T15:25:15.363Z,10.15
2022-12-01T15:28:48.963Z,6.95
2022-12-01T15:32:27.737Z,5.53
2022-12-01T15:35:56.045Z,9.57
2022-12-01T15:39:36.055Z,6.07
2022-12-01T15:43:10.533Z,10.95
2022-12-01T15:46:32.849Z,8.70
2022-12-01T15:49:57.745Z,10.50
2022-12-01T15:53:36.341Z,10.98
2022-12-01T15:57:05.428Z,9.43
2022-12-01T16:00:40.444Z,12.00
2022-12-01T16:04:22.364Z,11.43
2022-12-01T16:08:15.664Z,10.00
2022-12-01T16:11:25.771Z,8.25
2022-12-01T16:15:12.303Z,11.15
2022-12-01T16:19:03.251Z,9.65
2022-12-01T16:26:16.832Z,11.70
2022-12-01T16:30:03.117Z,12.43
2022-12-01T16:33:31.169Z,11.20
2022-12-01T16:37:12.175Z,11.30
2022-12-01T16:40:34.693Z,8.02
2022-12-01T16:44:27.017Z,8.35
2022-12-01T16:47:33.379Z,12.40
2022-12-01T16:51:29.479Z,9.82
2022-12-01T16:54:52.085Z,13.23
2022-12-01T16:58:28.603Z,13.82
2022-12-01T17:01:34.685Z,11.73
2022-12-01T17:04:38.334Z,10.80
2022-12-01T17:08:08.871Z,9.05
2022-12-01T17:11:45.438Z,18.67
2022-12-01T17:15:18.493Z,7.70
2022-12-01T17:18:48.248Z,15.20
2022-12-01T17:22:10.021Z,11.02
2022-12-01T17:25:46.617Z,11.98
2022-12-01T17:29:32.483Z,14.10
2022-12-01T17:36:35.789Z,12.15
2022-12-01T17:41:01.296Z,12.55
2022-12-01T17:44:57.151Z,11.48
2022-12-01T17:56:29.478Z,16.17
2022-12-01T18:22:31.168Z,16.37
2022-12-01T18:26:21.872Z,11.85
2022-12-01T19:00:09.134Z,20.30
2022-12-01T19:03:52.557Z,16.62
2022-12-01T19:07:32.779Z,14.63
2022-12-01T19:15:02.147Z,11.77
2022-12-01T19:18:49.562Z,14.93
2022-12-01T19:22:12.819Z,26.33
2022-12-01T19:30:05.643Z,13.48
2022-12-01T19:33:48.506Z,17.58
2022-12-01T20:40:58.469Z,12.02
2022-12-01T20:44:36.641Z,13.40
2022-12-01T20:59:51.401Z,10.07
2022-12-01T21:03:51.683Z,11.68
2022-12-01T21:07:32.733Z,12.25
2022-12-01T21:15:07.388Z,12.30
2022-12-01T21:19:32.218Z,14.30
2022-12-01T21:34:21.080Z,13.55
2022-12-01T21:57:54.763Z,14.32
2022-12-01T22:10:08.916Z,12.07
2022-12-01T22:14:07.362Z,9.40
2022-12-01T22:17:44.374Z,9.52
2022-12-01T22:21:31.519Z,11.98
2022-12-01T22:41:58.137Z,9.90
2022-12-01T22:45:34.221Z,9.77
2022-12-01T22:57:08.042Z,9.77
2022-12-01T23:05:34.507Z,8.73
2022-12-01T23:49:37.161Z,12.20
2022-12-01T23:57:48.134Z,10.32
